sensor_id;sensor_type;location;lat;lon;timestamp;P1;durP1;ratioP1;P2;durP2;ratioP2
64225;SDS011;50545;56.064;26.178;2023-03-31T00:00:50;8.07;;;4.50;;
64225;SDS011;50545;56.064;26.178;2023-03-31T00:03:18;8.35;;;4.55;;
64225;SDS011;50545;56.064;26.178;2023-03-31T00:05:56;8.02;;;4.22;;
64225;SDS011;50545;56.064;26.178;2023-03-31T00:08:25;8.13;;;4.53;;
64225;SDS011;50545;56.064;26.178;2023-03-31T00:10:59;7.80;;;4.05;;
64225;SDS011;50545;56.064;26.178;2023-03-31T00:13:27;8.30;;;4.50;;
64225;SDS011;50545;56.064;26.178;2023-03-31T00:15:56;6.50;;;3.83;;
64225;SDS011;50545;56.064;26.178;2023-03-31T00:18:24;7.88;;;4.20;;
64225;SDS011;50545;56.064;26.178;2023-03-31T00:20:52;10.18;;;4.78;;
64225;SDS011;50545;56.064;26.178;2023-03-31T00:23:20;9.75;;;4.25;;
64225;SDS011;50545;56.064;26.178;2023-03-31T00:25:54;8.88;;;4.30;;
64225;SDS011;50545;56.064;26.178;2023-03-31T00:28:21;8.95;;;4.45;;
64225;SDS011;50545;56.064;26.178;2023-03-31T00:30:48;8.07;;;4.43;;
64225;SDS011;50545;56.064;26.178;2023-03-31T00:33:17;9.15;;;4.38;;
64225;SDS011;50545;56.064;26.178;2023-03-31T00:35:44;6.88;;;4.03;;
64225;SDS011;50545;56.064;26.178;2023-03-31T00:38:11;6.57;;;3.80;;
64225;SDS011;50545;56.064;26.178;2023-03-31T00:40:43;7.25;;;4.10;;
64225;SDS011;50545;56.064;26.178;2023-03-31T00:43:34;7.43;;;4.05;;
64225;SDS011;50545;56.064;26.178;2023-03-31T00:48:50;8.30;;;4.30;;
64225;SDS011;50545;56.064;26.178;2023-03-31T00:51:23;7.97;;;4.13;;
64225;SDS011;50545;56.064;26.178;2023-03-31T00:53:56;9.65;;;4.20;;
64225;SDS011;50545;56.064;26.178;2023-03-31T00:56:34;9.65;;;4.53;;
64225;SDS011;50545;56.064;26.178;2023-03-31T00:59:06;7.18;;;3.90;;
64225;SDS011;50545;56.064;26.178;2023-03-31T01:01:37;6.72;;;4.00;;
64225;SDS011;50545;56.064;26.178;2023-03-31T01:04:08;7.45;;;4.05;;
64225;SDS011;50545;56.064;26.178;2023-03-31T01:06:41;8.07;;;4.30;;
64225;SDS011;50545;56.064;26.178;2023-03-31T01:09:17;7.72;;;4.22;;
64225;SDS011;50545;56.064;26.178;2023-03-31T01:11:45;8.65;;;3.92;;
64225;SDS011;50545;56.064;26.178;2023-03-31T01:14:13;5.97;;;3.60;;
64225;SDS011;50545;56.064;26.178;2023-03-31T01:16:41;8.85;;;4.60;;
64225;SDS011;50545;56.064;26.178;2023-03-31T01:19:11;7.93;;;4.03;;
64225;SDS011;50545;56.064;26.178;2023-03-31T01:21:58;7.20;;;3.60;;
64225;SDS011;50545;56.064;26.178;2023-03-31T01:25:04;6.80;;;3.70;;
64225;SDS011;50545;56.064;26.178;2023-03-31T01:45:18;7.15;;;3.70;;
64225;SDS011;50545;56.064;26.178;2023-03-31T01:47:51;7.10;;;3.45;;
64225;SDS011;50545;56.064;26.178;2023-03-31T01:50:26;6.40;;;3.15;;
64225;SDS011;50545;56.064;26.178;2023-03-31T01:56:09;6.90;;;3.45;;
64225;SDS011;50545;56.064;26.178;2023-03-31T01:58:53;6.82;;;3.25;;
64225;SDS011;50545;56.064;26.178;2023-03-31T02:01:53;5.50;;;3.10;;
64225;SDS011;50545;56.064;26.178;2023-03-31T02:04:29;7.63;;;3.28;;
64225;SDS011;50545;56.064;26.178;2023-03-31T02:07:02;7.93;;;3.50;;
64225;SDS011;50545;56.064;26.178;2023-03-31T02:09:37;6.88;;;3.40;;
64225;SDS011;50545;56.064;26.178;2023-03-31T02:12:10;6.70;;;3.42;;
64225;SDS011;50545;56.064;26.178;2023-03-31T02:14:38;5.30;;;2.65;;
64225;SDS011;50545;56.064;26.178;2023-03-31T02:19:40;6.72;;;2.95;;
64225;SDS011;50545;56.064;26.178;2023-03-31T02:22:10;6.80;;;3.22;;
64225;SDS011;50545;56.064;26.178;2023-03-31T02:24:39;6.97;;;3.50;;
64225;SDS011;50545;56.064;26.178;2023-03-31T02:27:13;5.35;;;3.10;;
64225;SDS011;50545;56.064;26.178;2023-03-31T02:30:05;5.20;;;3.15;;
64225;SDS011;50545;56.064;26.178;2023-03-31T02:35:04;6.05;;;3.22;;
64225;SDS011;50545;56.064;26.178;2023-03-31T02:37:35;7.07;;;3.03;;
64225;SDS011;50545;56.064;26.178;2023-03-31T02:40:07;5.93;;;3.35;;
64225;SDS011;50545;56.064;26.178;2023-03-31T02:42:38;6.65;;;3.55;;
64225;SDS011;50545;56.064;26.178;2023-03-31T02:45:35;6.35;;;3.38;;
64225;SDS011;50545;56.064;26.178;2023-03-31T02:48:12;8.00;;;3.40;;
64225;SDS011;50545;56.064;26.178;2023-03-31T03:02:09;7.82;;;3.72;;
64225;SDS011;50545;56.064;26.178;2023-03-31T03:07:57;6.25;;;3.47;;
64225;SDS011;50545;56.064;26.178;2023-03-31T03:13:22;5.00;;;2.97;;
64225;SDS011;50545;56.064;26.178;2023-03-31T03:18:59;5.65;;;3.38;;
64225;SDS011;50545;56.064;26.178;2023-03-31T03:21:28;6.00;;;3.35;;
64225;SDS011;50545;56.064;26.178;2023-03-31T03:23:56;5.90;;;3.00;;
64225;SDS011;50545;56.064;26.178;2023-03-31T03:26:25;6.20;;;3.25;;
64225;SDS011;50545;56.064;26.178;2023-03-31T03:28:54;5.97;;;3.03;;
64225;SDS011;50545;56.064;26.178;2023-03-31T03:31:22;7.05;;;3.35;;
64225;SDS011;50545;56.064;26.178;2023-03-31T03:33:52;7.30;;;2.88;;
64225;SDS011;50545;56.064;26.178;2023-03-31T03:36:19;7.63;;;3.58;;
64225;SDS011;50545;56.064;26.178;2023-03-31T03:38:47;7.45;;;3.67;;
64225;SDS011;50545;56.064;26.178;2023-03-31T03:41:14;7.10;;;3.47;;
64225;SDS011;50545;56.064;26.178;2023-03-31T03:43:41;6.47;;;3.22;;
64225;SDS011;50545;56.064;26.178;2023-03-31T03:46:09;5.80;;;2.78;;
64225;SDS011;50545;56.064;26.178;2023-03-31T03:48:36;7.90;;;3.00;;
64225;SDS011;50545;56.064;26.178;2023-03-31T03:51:03;7.13;;;3.88;;
64225;SDS011;50545;56.064;26.178;2023-03-31T03:53:32;8.10;;;3.42;;
64225;SDS011;50545;56.064;26.178;2023-03-31T03:55:59;6.38;;;3.17;;
64225;SDS011;50545;56.064;26.178;2023-03-31T03:58:27;5.97;;;3.30;;
64225;SDS011;50545;56.064;26.178;2023-03-31T04:00:54;9.13;;;3.95;;
64225;SDS011;50545;56.064;26.178;2023-03-31T04:03:23;6.97;;;3.20;;
64225;SDS011;50545;56.064;26.178;2023-03-31T04:05:51;4.68;;;3.08;;
64225;SDS011;50545;56.064;26.178;2023-03-31T04:08:18;6.45;;;3.50;;
64225;SDS011;50545;56.064;26.178;2023-03-31T04:10:46;5.35;;;3.28;;
64225;SDS011;50545;56.064;26.178;2023-03-31T04:13:15;5.50;;;3.05;;
64225;SDS011;50545;56.064;26.178;2023-03-31T04:15:43;6.95;;;4.13;;
64225;SDS011;50545;56.064;26.178;2023-03-31T04:18:11;7.90;;;4.03;;
64225;SDS011;50545;56.064;26.178;2023-03-31T04:20:49;3.45;;;2.47;;
64225;SDS011;50545;56.064;26.178;2023-03-31T04:23:32;3.83;;;2.58;;
64225;SDS011;50545;56.064;26.178;2023-03-31T04:26:03;6.00;;;3.03;;
64225;SDS011;50545;56.064;26.178;2023-03-31T04:28:34;3.58;;;2.38;;
64225;SDS011;50545;56.064;26.178;2023-03-31T04:31:03;5.07;;;2.70;;
64225;SDS011;50545;56.064;26.178;2023-03-31T04:38:45;4.80;;;2.80;;
64225;SDS011;50545;56.064;26.178;2023-03-31T04:41:13;8.07;;;3.80;;
64225;SDS011;50545;56.064;26.178;2023-03-31T04:43:41;5.13;;;2.83;;
64225;SDS011;50545;56.064;26.178;2023-03-31T04:46:08;8.43;;;3.50;;
64225;SDS011;50545;56.064;26.178;2023-03-31T04:48:36;6.60;;;3.30;;
64225;SDS011;50545;56.064;26.178;2023-03-31T04:51:04;7.28;;;2.75;;
64225;SDS011;50545;56.064;26.178;2023-03-31T04:53:32;4.20;;;2.47;;
64225;SDS011;50545;56.064;26.178;2023-03-31T04:55:59;3.35;;;2.00;;
64225;SDS011;50545;56.064;26.178;2023-03-31T04:58:27;5.82;;;3.22;;
64225;SDS011;50545;56.064;26.178;2023-03-31T05:00:54;7.65;;;3.67;;
64225;SDS011;50545;56.064;26.178;2023-03-31T05:03:21;6.78;;;3.35;;
64225;SDS011;50545;56.064;26.178;2023-03-31T05:05:49;5.22;;;2.83;;
64225;SDS011;50545;56.064;26.178;2023-03-31T05:08:16;5.57;;;3.47;;
64225;SDS011;50545;56.064;26.178;2023-03-31T05:10:44;6.82;;;3.05;;
64225;SDS011;50545;56.064;26.178;2023-03-31T05:13:11;5.88;;;3.35;;
64225;SDS011;50545;56.064;26.178;2023-03-31T05:15:38;7.65;;;2.97;;
64225;SDS011;50545;56.064;26.178;2023-03-31T05:18:06;6.75;;;3.42;;
64225;SDS011;50545;56.064;26.178;2023-03-31T05:20:33;6.65;;;3.40;;
64225;SDS011;50545;56.064;26.178;2023-03-31T05:23:01;5.82;;;3.50;;
64225;SDS011;50545;56.064;26.178;2023-03-31T05:25:32;6.25;;;3.08;;
64225;SDS011;50545;56.064;26.178;2023-03-31T05:27:59;6.00;;;3.33;;
64225;SDS011;50545;56.064;26.178;2023-03-31T05:30:27;7.60;;;3.72;;
64225;SDS011;50545;56.064;26.178;2023-03-31T05:32:55;4.10;;;2.53;;
64225;SDS011;50545;56.064;26.178;2023-03-31T05:35:22;5.00;;;2.67;;
64225;SDS011;50545;56.064;26.178;2023-03-31T05:37:49;5.57;;;2.80;;
64225;SDS011;50545;56.064;26.178;2023-03-31T05:40:17;4.78;;;2.78;;
64225;SDS011;50545;56.064;26.178;2023-03-31T05:42:44;5.40;;;3.30;;
64225;SDS011;50545;56.064;26.178;2023-03-31T05:45:11;5.60;;;3.28;;
64225;SDS011;50545;56.064;26.178;2023-03-31T05:47:38;7.80;;;4.10;;
64225;SDS011;50545;56.064;26.178;2023-03-31T05:50:06;6.32;;;3.75;;
64225;SDS011;50545;56.064;26.178;2023-03-31T05:52:34;6.30;;;2.97;;
64225;SDS011;50545;56.064;26.178;2023-03-31T05:55:02;5.57;;;3.15;;
64225;SDS011;50545;56.064;26.178;2023-03-31T05:57:29;5.82;;;3.03;;
64225;SDS011;50545;56.064;26.178;2023-03-31T05:59:57;5.85;;;2.85;;
64225;SDS011;50545;56.064;26.178;2023-03-31T06:02:24;6.13;;;3.50;;
64225;SDS011;50545;56.064;26.178;2023-03-31T06:04:52;7.60;;;3.70;;
64225;SDS011;50545;56.064;26.178;2023-03-31T06:07:19;8.80;;;3.90;;
64225;SDS011;50545;56.064;26.178;2023-03-31T06:09:47;6.88;;;3.50;;
64225;SDS011;50545;56.064;26.178;2023-03-31T06:12:14;5.82;;;3.40;;
64225;SDS011;50545;56.064;26.178;2023-03-31T06:14:42;6.22;;;3.15;;
64225;SDS011;50545;56.064;26.178;2023-03-31T06:17:09;7.75;;;4.13;;
64225;SDS011;50545;56.064;26.178;2023-03-31T06:19:36;7.30;;;3.63;;
64225;SDS011;50545;56.064;26.178;2023-03-31T06:22:03;6.20;;;3.55;;
64225;SDS011;50545;56.064;26.178;2023-03-31T06:24:30;5.50;;;2.80;;
64225;SDS011;50545;56.064;26.178;2023-03-31T06:26:57;8.13;;;3.40;;
64225;SDS011;50545;56.064;26.178;2023-03-31T06:29:26;7.25;;;4.03;;
64225;SDS011;50545;56.064;26.178;2023-03-31T06:31:53;2.95;;;1.67;;
64225;SDS011;50545;56.064;26.178;2023-03-31T06:34:20;10.57;;;5.20;;
64225;SDS011;50545;56.064;26.178;2023-03-31T06:36:48;7.78;;;4.10;;
64225;SDS011;50545;56.064;26.178;2023-03-31T06:39:15;10.95;;;6.47;;
64225;SDS011;50545;56.064;26.178;2023-03-31T06:41:42;9.73;;;5.57;;
64225;SDS011;50545;56.064;26.178;2023-03-31T06:44:09;6.55;;;3.85;;
64225;SDS011;50545;56.064;26.178;2023-03-31T06:46:36;8.52;;;4.38;;
64225;SDS011;50545;56.064;26.178;2023-03-31T06:49:03;9.25;;;5.07;;
64225;SDS011;50545;56.064;26.178;2023-03-31T06:51:31;7.85;;;5.05;;
64225;SDS011;50545;56.064;26.178;2023-03-31T06:53:58;9.80;;;5.38;;
64225;SDS011;50545;56.064;26.178;2023-03-31T06:56:25;10.10;;;5.20;;
64225;SDS011;50545;56.064;26.178;2023-03-31T06:58:53;9.90;;;5.60;;
64225;SDS011;50545;56.064;26.178;2023-03-31T07:01:20;8.52;;;5.10;;
64225;SDS011;50545;56.064;26.178;2023-03-31T07:03:47;9.80;;;6.40;;
64225;SDS011;50545;56.064;26.178;2023-03-31T07:06:14;10.35;;;6.65;;
64225;SDS011;50545;56.064;26.178;2023-03-31T07:08:42;7.93;;;4.50;;
64225;SDS011;50545;56.064;26.178;2023-03-31T07:11:09;16.00;;;8.05;;
64225;SDS011;50545;56.064;26.178;2023-03-31T07:13:37;12.32;;;6.07;;
64225;SDS011;50545;56.064;26.178;2023-03-31T07:16:04;8.15;;;5.20;;
64225;SDS011;50545;56.064;26.178;2023-03-31T07:18:33;11.93;;;7.32;;
64225;SDS011;50545;56.064;26.178;2023-03-31T07:21:02;12.50;;;7.57;;
64225;SDS011;50545;56.064;26.178;2023-03-31T07:23:34;10.15;;;5.65;;
64225;SDS011;50545;56.064;26.178;2023-03-31T07:26:02;9.98;;;5.43;;
64225;SDS011;50545;56.064;26.178;2023-03-31T07:28:30;10.32;;;6.38;;
64225;SDS011;50545;56.064;26.178;2023-03-31T07:30:57;7.68;;;4.65;;
64225;SDS011;50545;56.064;26.178;2023-03-31T07:33:24;8.43;;;4.85;;
64225;SDS011;50545;56.064;26.178;2023-03-31T07:35:52;9.60;;;6.03;;
64225;SDS011;50545;56.064;26.178;2023-03-31T07:38:35;10.05;;;5.60;;
64225;SDS011;50545;56.064;26.178;2023-03-31T07:41:02;8.32;;;4.90;;
64225;SDS011;50545;56.064;26.178;2023-03-31T07:43:34;6.63;;;2.88;;
64225;SDS011;50545;56.064;26.178;2023-03-31T07:46:01;9.15;;;4.85;;
64225;SDS011;50545;56.064;26.178;2023-03-31T07:48:31;8.27;;;4.72;;
64225;SDS011;50545;56.064;26.178;2023-03-31T07:50:59;7.25;;;4.20;;
64225;SDS011;50545;56.064;26.178;2023-03-31T07:53:26;9.13;;;5.85;;
64225;SDS011;50545;56.064;26.178;2023-03-31T07:55:53;12.02;;;4.97;;
64225;SDS011;50545;56.064;26.178;2023-03-31T07:58:20;9.98;;;5.28;;
64225;SDS011;50545;56.064;26.178;2023-03-31T08:00:47;10.13;;;5.03;;
64225;SDS011;50545;56.064;26.178;2023-03-31T08:03:14;5.93;;;3.30;;
64225;SDS011;50545;56.064;26.178;2023-03-31T08:05:41;8.23;;;4.13;;
64225;SDS011;50545;56.064;26.178;2023-03-31T08:08:09;11.57;;;5.55;;
64225;SDS011;50545;56.064;26.178;2023-03-31T08:10:36;11.07;;;5.88;;
64225;SDS011;50545;56.064;26.178;2023-03-31T08:13:03;7.22;;;4.35;;
64225;SDS011;50545;56.064;26.178;2023-03-31T08:15:30;10.30;;;4.63;;
64225;SDS011;50545;56.064;26.178;2023-03-31T08:17:57;9.13;;;4.88;;
64225;SDS011;50545;56.064;26.178;2023-03-31T08:20:24;8.05;;;4.35;;
64225;SDS011;50545;56.064;26.178;2023-03-31T08:22:51;8.43;;;4.82;;
64225;SDS011;50545;56.064;26.178;2023-03-31T08:25:18;7.10;;;3.75;;
64225;SDS011;50545;56.064;26.178;2023-03-31T08:27:46;9.40;;;4.55;;
64225;SDS011;50545;56.064;26.178;2023-03-31T08:30:17;5.95;;;3.35;;
64225;SDS011;50545;56.064;26.178;2023-03-31T08:32:45;3.20;;;1.85;;
64225;SDS011;50545;56.064;26.178;2023-03-31T08:35:12;8.00;;;4.75;;
64225;SDS011;50545;56.064;26.178;2023-03-31T08:37:40;7.32;;;3.70;;
64225;SDS011;50545;56.064;26.178;2023-03-31T08:40:07;8.48;;;5.03;;
64225;SDS011;50545;56.064;26.178;2023-03-31T08:42:44;7.85;;;5.03;;
64225;SDS011;50545;56.064;26.178;2023-03-31T08:45:19;7.53;;;4.32;;
64225;SDS011;50545;56.064;26.178;2023-03-31T08:48:44;8.88;;;4.85;;
64225;SDS011;50545;56.064;26.178;2023-03-31T08:51:02;7.72;;;4.40;;
64225;SDS011;50545;56.064;26.178;2023-03-31T08:53:35;7.95;;;4.68;;
64225;SDS011;50545;56.064;26.178;2023-03-31T08:56:16;8.95;;;5.13;;
64225;SDS011;50545;56.064;26.178;2023-03-31T08:58:47;10.30;;;4.95;;
64225;SDS011;50545;56.064;26.178;2023-03-31T09:10:02;8.30;;;4.43;;
64225;SDS011;50545;56.064;26.178;2023-03-31T09:15:57;6.82;;;4.28;;
64225;SDS011;50545;56.064;26.178;2023-03-31T09:18:34;6.68;;;4.05;;
64225;SDS011;50545;56.064;26.178;2023-03-31T09:21:07;7.47;;;3.95;;
64225;SDS011;50545;56.064;26.178;2023-03-31T09:29:13;5.35;;;3.60;;
64225;SDS011;50545;56.064;26.178;2023-03-31T09:31:45;6.38;;;3.45;;
64225;SDS011;50545;56.064;26.178;2023-03-31T09:34:13;5.72;;;3.80;;
64225;SDS011;50545;56.064;26.178;2023-03-31T09:36:42;5.07;;;3.00;;
64225;SDS011;50545;56.064;26.178;2023-03-31T09:39:13;4.18;;;2.30;;
64225;SDS011;50545;56.064;26.178;2023-03-31T09:44:13;8.02;;;4.40;;
64225;SDS011;50545;56.064;26.178;2023-03-31T09:47:17;5.82;;;2.47;;
64225;SDS011;50545;56.064;26.178;2023-03-31T09:49:49;3.95;;;2.53;;
64225;SDS011;50545;56.064;26.178;2023-03-31T09:52:29;5.70;;;3.33;;
64225;SDS011;50545;56.064;26.178;2023-03-31T09:54:59;6.45;;;3.58;;
64225;SDS011;50545;56.064;26.178;2023-03-31T09:57:33;6.28;;;3.55;;
64225;SDS011;50545;56.064;26.178;2023-03-31T10:08:21;6.90;;;3.78;;
64225;SDS011;50545;56.064;26.178;2023-03-31T10:11:06;5.40;;;3.03;;
64225;SDS011;50545;56.064;26.178;2023-03-31T10:13:50;8.35;;;4.70;;
64225;SDS011;50545;56.064;26.178;2023-03-31T10:16:22;7.22;;;4.20;;
64225;SDS011;50545;56.064;26.178;2023-03-31T10:19:13;5.60;;;3.53;;
64225;SDS011;50545;56.064;26.178;2023-03-31T10:21:44;7.97;;;4.28;;
64225;SDS011;50545;56.064;26.178;2023-03-31T10:24:17;6.53;;;3.95;;
64225;SDS011;50545;56.064;26.178;2023-03-31T10:26:48;7.47;;;3.80;;
64225;SDS011;50545;56.064;26.178;2023-03-31T10:29:21;6.13;;;3.28;;
64225;SDS011;50545;56.064;26.178;2023-03-31T10:31:55;6.97;;;4.35;;
64225;SDS011;50545;56.064;26.178;2023-03-31T10:34:36;8.02;;;4.35;;
64225;SDS011;50545;56.064;26.178;2023-03-31T10:37:13;8.10;;;4.68;;
64225;SDS011;50545;56.064;26.178;2023-03-31T10:39:55;6.88;;;3.97;;
64225;SDS011;50545;56.064;26.178;2023-03-31T10:42:44;6.43;;;3.95;;
64225;SDS011;50545;56.064;26.178;2023-03-31T10:47:59;8.27;;;4.30;;
64225;SDS011;50545;56.064;26.178;2023-03-31T10:50:33;6.32;;;3.70;;
64225;SDS011;50545;56.064;26.178;2023-03-31T10:53:09;6.85;;;3.72;;
64225;SDS011;50545;56.064;26.178;2023-03-31T10:56:02;6.65;;;3.58;;
64225;SDS011;50545;56.064;26.178;2023-03-31T10:58:54;4.93;;;2.80;;
64225;SDS011;50545;56.064;26.178;2023-03-31T11:07:20;4.88;;;2.88;;
64225;SDS011;50545;56.064;26.178;2023-03-31T11:12:56;5.88;;;3.72;;
64225;SDS011;50545;56.064;26.178;2023-03-31T11:27:20;6.75;;;3.83;;
64225;SDS011;50545;56.064;26.178;2023-03-31T11:32:46;4.15;;;2.85;;
64225;SDS011;50545;56.064;26.178;2023-03-31T11:37:52;6.22;;;3.22;;
64225;SDS011;50545;56.064;26.178;2023-03-31T11:43:01;7.18;;;3.50;;
64225;SDS011;50545;56.064;26.178;2023-03-31T11:45:45;5.30;;;2.85;;
64225;SDS011;50545;56.064;26.178;2023-03-31T11:48:25;5.88;;;2.78;;
64225;SDS011;50545;56.064;26.178;2023-03-31T11:51:06;5.07;;;2.85;;
64225;SDS011;50545;56.064;26.178;2023-03-31T11:53:39;5.43;;;3.30;;
64225;SDS011;50545;56.064;26.178;2023-03-31T11:56:10;6.67;;;3.67;;
64225;SDS011;50545;56.064;26.178;2023-03-31T11:58:53;9.35;;;3.58;;
64225;SDS011;50545;56.064;26.178;2023-03-31T12:01:26;6.70;;;3.95;;
64225;SDS011;50545;56.064;26.178;2023-03-31T12:06:33;6.70;;;3.80;;
64225;SDS011;50545;56.064;26.178;2023-03-31T12:09:14;6.88;;;3.65;;
64225;SDS011;50545;56.064;26.178;2023-03-31T12:17:14;6.13;;;3.00;;
64225;SDS011;50545;56.064;26.178;2023-03-31T12:19:49;5.43;;;3.28;;
64225;SDS011;50545;56.064;26.178;2023-03-31T12:24:51;6.55;;;3.72;;
64225;SDS011;50545;56.064;26.178;2023-03-31T12:27:22;6.85;;;3.92;;
64225;SDS011;50545;56.064;26.178;2023-03-31T12:32:29;5.65;;;3.30;;
64225;SDS011;50545;56.064;26.178;2023-03-31T12:35:25;5.68;;;3.22;;
64225;SDS011;50545;56.064;26.178;2023-03-31T12:41:19;2.88;;;1.95;;
64225;SDS011;50545;56.064;26.178;2023-03-31T12:46:40;4.63;;;2.70;;
64225;SDS011;50545;56.064;26.178;2023-03-31T12:49:15;3.65;;;2.55;;
64225;SDS011;50545;56.064;26.178;2023-03-31T12:52:03;3.58;;;2.53;;
64225;SDS011;50545;56.064;26.178;2023-03-31T12:57:18;5.70;;;3.70;;
64225;SDS011;50545;56.064;26.178;2023-03-31T13:02:44;6.65;;;3.38;;
64225;SDS011;50545;56.064;26.178;2023-03-31T13:08:02;4.93;;;3.15;;
64225;SDS011;50545;56.064;26.178;2023-03-31T13:10:51;6.35;;;3.08;;
64225;SDS011;50545;56.064;26.178;2023-03-31T13:13:23;5.70;;;3.17;;
64225;SDS011;50545;56.064;26.178;2023-03-31T13:15:52;6.18;;;3.38;;
64225;SDS011;50545;56.064;26.178;2023-03-31T13:18:22;5.63;;;3.28;;
64225;SDS011;50545;56.064;26.178;2023-03-31T13:21:02;5.93;;;3.33;;
64225;SDS011;50545;56.064;26.178;2023-03-31T13:23:33;4.00;;;2.63;;
64225;SDS011;50545;56.064;26.178;2023-03-31T13:26:01;4.95;;;2.53;;
64225;SDS011;50545;56.064;26.178;2023-03-31T13:28:41;4.88;;;2.95;;
64225;SDS011;50545;56.064;26.178;2023-03-31T13:31:11;4.82;;;2.97;;
64225;SDS011;50545;56.064;26.178;2023-03-31T13:33:58;5.37;;;2.80;;
64225;SDS011;50545;56.064;26.178;2023-03-31T13:42:15;6.57;;;3.25;;
64225;SDS011;50545;56.064;26.178;2023-03-31T13:55:27;5.53;;;3.13;;
64225;SDS011;50545;56.064;26.178;2023-03-31T14:04:05;6.10;;;2.95;;
64225;SDS011;50545;56.064;26.178;2023-03-31T14:09:28;4.63;;;2.78;;
64225;SDS011;50545;56.064;26.178;2023-03-31T14:12:00;4.60;;;2.60;;
64225;SDS011;50545;56.064;26.178;2023-03-31T14:14:43;4.95;;;2.97;;
64225;SDS011;50545;56.064;26.178;2023-03-31T14:17:10;4.18;;;2.75;;
64225;SDS011;50545;56.064;26.178;2023-03-31T14:39:05;5.85;;;3.25;;
64225;SDS011;50545;56.064;26.178;2023-03-31T14:41:36;6.45;;;3.20;;
64225;SDS011;50545;56.064;26.178;2023-03-31T14:44:04;6.80;;;3.05;;
64225;SDS011;50545;56.064;26.178;2023-03-31T14:46:37;5.85;;;3.25;;
64225;SDS011;50545;56.064;26.178;2023-03-31T14:49:05;6.22;;;3.35;;
64225;SDS011;50545;56.064;26.178;2023-03-31T14:51:54;8.27;;;3.53;;
64225;SDS011;50545;56.064;26.178;2023-03-31T14:54:26;6.40;;;3.50;;
64225;SDS011;50545;56.064;26.178;2023-03-31T14:56:59;5.70;;;3.10;;
64225;SDS011;50545;56.064;26.178;2023-03-31T14:59:30;6.60;;;3.65;;
64225;SDS011;50545;56.064;26.178;2023-03-31T15:02:00;6.15;;;3.40;;
64225;SDS011;50545;56.064;26.178;2023-03-31T15:04:39;6.82;;;3.58;;
64225;SDS011;50545;56.064;26.178;2023-03-31T15:07:10;6.45;;;3.33;;
64225;SDS011;50545;56.064;26.178;2023-03-31T15:09:38;5.15;;;3.05;;
64225;SDS011;50545;56.064;26.178;2023-03-31T15:12:10;4.60;;;2.83;;
64225;SDS011;50545;56.064;26.178;2023-03-31T15:14:44;6.47;;;3.47;;
64225;SDS011;50545;56.064;26.178;2023-03-31T15:17:18;5.70;;;2.90;;
64225;SDS011;50545;56.064;26.178;2023-03-31T15:19:50;7.35;;;3.58;;
64225;SDS011;50545;56.064;26.178;2023-03-31T15:22:27;7.05;;;3.38;;
64225;SDS011;50545;56.064;26.178;2023-03-31T15:24:56;5.10;;;3.33;;
64225;SDS011;50545;56.064;26.178;2023-03-31T15:30:05;7.25;;;3.30;;
64225;SDS011;50545;56.064;26.178;2023-03-31T15:32:35;4.53;;;2.77;;
64225;SDS011;50545;56.064;26.178;2023-03-31T15:35:05;6.38;;;3.20;;
64225;SDS011;50545;56.064;26.178;2023-03-31T15:37:48;3.25;;;1.95;;
64225;SDS011;50545;56.064;26.178;2023-03-31T15:43:07;4.85;;;2.70;;
64225;SDS011;50545;56.064;26.178;2023-03-31T15:45:53;4.80;;;2.80;;
64225;SDS011;50545;56.064;26.178;2023-03-31T15:48:48;4.65;;;2.65;;
64225;SDS011;50545;56.064;26.178;2023-03-31T15:51:21;6.22;;;2.80;;
64225;SDS011;50545;56.064;26.178;2023-03-31T15:53:52;5.15;;;3.08;;
64225;SDS011;50545;56.064;26.178;2023-03-31T15:59:29;5.22;;;2.92;;
64225;SDS011;50545;56.064;26.178;2023-03-31T16:02:18;3.63;;;2.65;;
64225;SDS011;50545;56.064;26.178;2023-03-31T16:04:48;6.35;;;3.47;;
64225;SDS011;50545;56.064;26.178;2023-03-31T16:07:31;5.57;;;3.13;;
64225;SDS011;50545;56.064;26.178;2023-03-31T16:10:02;5.88;;;3.28;;
64225;SDS011;50545;56.064;26.178;2023-03-31T16:12:47;4.70;;;2.92;;
64225;SDS011;50545;56.064;26.178;2023-03-31T16:15:20;6.35;;;3.70;;
64225;SDS011;50545;56.064;26.178;2023-03-31T16:18:48;5.53;;;3.03;;
64225;SDS011;50545;56.064;26.178;2023-03-31T16:20:57;5.82;;;3.50;;
64225;SDS011;50545;56.064;26.178;2023-03-31T16:23:33;7.18;;;3.25;;
64225;SDS011;50545;56.064;26.178;2023-03-31T16:26:04;6.53;;;3.50;;
64225;SDS011;50545;56.064;26.178;2023-03-31T16:28:36;6.05;;;3.22;;
64225;SDS011;50545;56.064;26.178;2023-03-31T16:31:04;6.20;;;3.30;;
64225;SDS011;50545;56.064;26.178;2023-03-31T16:33:52;5.65;;;3.47;;
64225;SDS011;50545;56.064;26.178;2023-03-31T16:36:21;5.15;;;3.13;;
64225;SDS011;50545;56.064;26.178;2023-03-31T16:38:50;6.30;;;3.53;;
64225;SDS011;50545;56.064;26.178;2023-03-31T16:41:19;5.65;;;3.22;;
64225;SDS011;50545;56.064;26.178;2023-03-31T16:43:48;5.80;;;3.53;;
64225;SDS011;50545;56.064;26.178;2023-03-31T16:46:17;5.60;;;3.15;;
64225;SDS011;50545;56.064;26.178;2023-03-31T16:48:45;5.78;;;3.45;;
64225;SDS011;50545;56.064;26.178;2023-03-31T16:51:13;6.03;;;3.50;;
64225;SDS011;50545;56.064;26.178;2023-03-31T16:53:40;5.35;;;3.17;;
64225;SDS011;50545;56.064;26.178;2023-03-31T16:56:08;6.43;;;3.30;;
64225;SDS011;50545;56.064;26.178;2023-03-31T16:58:37;5.50;;;3.25;;
64225;SDS011;50545;56.064;26.178;2023-03-31T17:01:06;5.72;;;3.47;;
64225;SDS011;50545;56.064;26.178;2023-03-31T17:03:34;6.45;;;3.70;;
64225;SDS011;50545;56.064;26.178;2023-03-31T17:06:09;8.15;;;3.60;;
64225;SDS011;50545;56.064;26.178;2023-03-31T17:08:38;6.75;;;3.65;;
64225;SDS011;50545;56.064;26.178;2023-03-31T17:11:10;5.30;;;3.15;;
64225;SDS011;50545;56.064;26.178;2023-03-31T17:13:40;8.00;;;3.78;;
64225;SDS011;50545;56.064;26.178;2023-03-31T17:16:09;5.00;;;3.28;;
64225;SDS011;50545;56.064;26.178;2023-03-31T17:18:40;6.70;;;3.38;;
64225;SDS011;50545;56.064;26.178;2023-03-31T17:21:08;5.03;;;3.35;;
64225;SDS011;50545;56.064;26.178;2023-03-31T17:23:37;4.53;;;2.80;;
64225;SDS011;50545;56.064;26.178;2023-03-31T17:26:05;5.60;;;3.45;;
64225;SDS011;50545;56.064;26.178;2023-03-31T17:28:35;5.18;;;3.30;;
64225;SDS011;50545;56.064;26.178;2023-03-31T17:31:10;5.60;;;3.30;;
64225;SDS011;50545;56.064;26.178;2023-03-31T17:33:37;5.30;;;3.45;;
64225;SDS011;50545;56.064;26.178;2023-03-31T17:36:05;6.90;;;3.45;;
64225;SDS011;50545;56.064;26.178;2023-03-31T17:38:33;6.25;;;3.88;;
64225;SDS011;50545;56.064;26.178;2023-03-31T17:41:03;5.50;;;3.40;;
64225;SDS011;50545;56.064;26.178;2023-03-31T17:43:32;4.95;;;3.10;;
64225;SDS011;50545;56.064;26.178;2023-03-31T17:46:04;5.68;;;3.40;;
64225;SDS011;50545;56.064;26.178;2023-03-31T17:48:37;5.60;;;3.35;;
64225;SDS011;50545;56.064;26.178;2023-03-31T17:51:09;6.50;;;3.78;;
64225;SDS011;50545;56.064;26.178;2023-03-31T17:53:40;6.43;;;3.50;;
64225;SDS011;50545;56.064;26.178;2023-03-31T17:56:08;5.43;;;3.40;;
64225;SDS011;50545;56.064;26.178;2023-03-31T17:58:36;6.32;;;3.65;;
64225;SDS011;50545;56.064;26.178;2023-03-31T18:01:04;5.22;;;3.42;;
64225;SDS011;50545;56.064;26.178;2023-03-31T18:03:33;5.10;;;3.08;;
64225;SDS011;50545;56.064;26.178;2023-03-31T18:06:01;5.43;;;3.40;;
64225;SDS011;50545;56.064;26.178;2023-03-31T18:08:30;5.28;;;3.47;;
64225;SDS011;50545;56.064;26.178;2023-03-31T18:10:57;5.38;;;3.20;;
64225;SDS011;50545;56.064;26.178;2023-03-31T18:13:24;5.18;;;3.42;;
64225;SDS011;50545;56.064;26.178;2023-03-31T18:15:52;6.10;;;3.47;;